Time;durP1;ratioP1;P1;durP2;ratioP2;P2;SDS_P1;SDS_P2;PMS_P1;PMS_P2;Temp;Humidity;BMP_temperature;BMP_pressure;BME280_temperature;BME280_humidity;BME280_pressure;Samples;Min_cycle;Max_cycle;Signal;HPM_P1;HPM_P2
2022/01/15 00:00:10;;;;;;;;;;;;;;;;;;2143211;27;20051;-73
2022/01/15 00:01:12;;;;;;;;;;;;;;;;;;2143294;27;19934;-74
2022/01/15 00:02:15;;;;;;;;;;;;;;;;;;2143166;27;20795;-74
2022/01/15 00:03:17;;;;;;;;;;;;;;;;;;2143480;27;19981;-73
2022/01/15 00:04:18;;;;;;;;;;;;;;;;;;2152865;27;19934;-74
2022/01/15 00:05:20;;;;;;;;;;;;;;;;;;2143317;27;20763;-71
2022/01/15 00:06:25;;;;;;;;;;;;;;;;;;2144060;27;19993;-75
2022/01/15 00:07:27;;;;;;;;;;;;;;;;;;2143190;27;19939;-74
2022/01/15 00:08:30;;;;;;;;;;;;;;;;;;2143317;27;19942;-71
2022/01/15 00:09:33;;;;;;;;;;;;;;;;;;2143284;27;20009;-71
2022/01/15 00:10:35;;;;;;;;;;;;;;;;;;2143283;27;19979;-70
2022/01/15 00:11:37;;;;;;;;;;;;;;;;;;2143848;27;19931;-72
2022/01/15 00:12:40;;;;;;;;;;;;;;;;;;2152566;27;19931;-74
2022/01/15 00:13:44;;;;;;;;;;;;;;;;;;2152496;27;19933;-72
2022/01/15 00:14:46;;;;;;;;;;;;;;;;;;2143072;27;19923;-72
2022/01/15 00:15:53;;;;;;;;;;;;;;;;;;2143596;27;20756;-72
2022/01/15 00:18:29;;;;;;;;;;;;;;;;;;2125336;27;19927;-73
2022/01/15 00:19:41;;;;;;;;;;;;;;;;;;2152488;27;20797;-72
2022/01/15 00:20:43;;;;;;;;;;;;;;;;;;2143238;27;19930;-72
2022/01/15 00:21:45;;;;;;;;;;;;;;;;;;2143552;27;19930;-73
2022/01/15 00:22:46;;;;;;;;;;;;;;;;;;2152517;27;19923;-72
2022/01/15 00:23:48;;;;;;;;;;;;;;;;;;2143114;27;19967;-73
2022/01/15 00:24:50;;;;;;;;;;;;;;;;;;2143055;27;20702;-73
2022/01/15 00:25:52;;;;;;;;;;;;;;;;;;2143061;27;19937;-72
2022/01/15 00:26:56;;;;;;;;;;;;;;;;;;2143508;27;20065;-74
2022/01/15 00:27:58;;;;;;;;;;;;;;;;;;2152243;27;19965;-71
2022/01/15 00:29:00;;;;;;;;;;;;;;;;;;2143034;27;20017;-75
2022/01/15 00:30:02;;;;;;;;;;;;;;;;;;2142983;27;20673;-74
2022/01/15 00:31:04;;;;;;;;;;;;;;;;;;2143172;27;19996;-72
2022/01/15 00:32:06;;;;;;;;;;;;;;;;;;2142895;27;19934;-74
2022/01/15 00:33:08;;;;;;;;;;;;;;;;;;2142550;27;19927;-71
2022/01/15 00:34:10;;;;;;;;;;;;;;;;;;2142807;27;19930;-72
2022/01/15 00:35:13;;;;;;;;;;;;;;;;;;2143018;27;20053;-72
2022/01/15 00:36:15;;;;;;;;;;;;;;;;;;2143222;27;19927;-73
2022/01/15 00:37:17;;;;;;;;;;;;;;;;;;2152347;27;19995;-72
2022/01/15 00:38:19;;;;;;;;;;;;;;;;;;2152454;27;19926;-72
2022/01/15 00:39:21;;;;;;;;;;;;;;;;;;2143177;27;19927;-73
2022/01/15 00:40:22;;;;;;;;;;;;;;;;;;2143286;27;20058;-72
2022/01/15 00:41:25;;;;;;;;;;;;;;;;;;2143067;27;20037;-74
2022/01/15 00:42:27;;;;;;;;;;;;;;;;;;2143086;27;20710;-72
2022/01/15 00:43:29;;;;;;;;;;;;;;;;;;2152587;27;19927;-72
2022/01/15 00:44:32;;;;;;;;;;;;;;;;;;2152454;27;19984;-73
2022/01/15 00:45:34;;;;;;;;;;;;;;;;;;2143118;27;19962;-72
2022/01/15 00:46:36;;;;;;;;;;;;;;;;;;2142982;27;20580;-78
2022/01/15 00:47:38;;;;;;;;;;;;;;;;;;2142885;27;19923;-73
2022/01/15 00:48:39;;;;;;;;;;;;;;;;;;2143635;27;20688;-74
2022/01/15 00:49:41;;;;;;;;;;;;;;;;;;2143194;27;19930;-78
2022/01/15 00:50:43;;;;;;;;;;;;;;;;;;2143485;27;19923;-74
2022/01/15 00:51:45;;;;;;;;;;;;;;;;;;2143267;27;20818;-72
2022/01/15 00:52:47;;;;;;;;;;;;;;;;;;2143458;27;20725;-74
2022/01/15 00:53:49;;;;;;;;;;;;;;;;;;2143150;27;19995;-74
2022/01/15 00:54:50;;;;;;;;;;;;;;;;;;2143709;27;20068;-74
2022/01/15 00:55:53;;;;;;;;;;;;;;;;;;2152478;27;19972;-75
2022/01/15 00:56:55;;;;;;;;;;;;;;;;;;2142843;27;19937;-73
2022/01/15 00:57:56;;;;;;;;;;;;;;;;;;2142992;27;19927;-73
2022/01/15 00:58:58;;;;;;;;;;;;;;;;;;2142742;27;19931;-74
2022/01/15 01:00:00;;;;;;;;;;;;;;;;;;2143067;27;19927;-76
2022/01/15 01:01:02;;;;;;;;;;;;;;;;;;2152120;27;19923;-74
2022/01/15 01:02:04;;;;;;;;;;;;;;;;;;2142606;27;20023;-73
2022/01/15 01:03:06;;;;;;;;;;;;;;;;;;2143128;27;19937;-77
2022/01/15 01:04:08;;;;;;;;;;;;;;;;;;2152109;27;20049;-75
2022/01/15 01:05:10;;;;;;;;;;;;;;;;;;2151779;27;19923;-71
2022/01/15 01:06:11;;;;;;;;;;;;;;;;;;2142803;27;19927;-72
2022/01/15 01:07:13;;;;;;;;;;;;;;;;;;2142862;27;20060;-71
2022/01/15 01:08:15;;;;;;;;;;;;;;;;;;2152219;27;19923;-71
2022/01/15 01:09:18;;;;;;;;;;;;;;;;;;2152243;27;19976;-71
2022/01/15 01:11:31;;;;;;;;;;;;;;;;;;2143102;27;19999;-74
2022/01/15 01:20:21;;;;;;;;;;;;;;;;;;2153050;27;19934;-74
2022/01/15 01:22:02;;;;;;;;;;;;;;;;;;2143700;27;20741;-74
2022/01/15 01:22:57;;;;;;;;;;;;;;;;;;2147333;27;19933;-74
2022/01/15 01:24:01;;;;;;;;;;;;;;;;;;2153582;27;20041;-73
2022/01/15 01:25:05;;;;;;;;;;;;;;;;;;2144609;27;19923;-75
2022/01/15 01:26:12;;;;;;;;;;;;;;;;;;2144755;27;20024;-73
2022/01/15 01:27:25;;;;;;;;;;;;;;;;;;2143497;27;19927;-73
2022/01/15 01:28:34;;;;;;;;;;;;;;;;;;2144063;27;19927;-72
2022/01/15 01:30:42;;;;;;;;;;;;;;;;;;2152803;27;19994;-71
2022/01/15 01:32:06;;;;;;;;;;;;;;;;;;2142787;27;19957;-72
2022/01/15 01:34:28;;;;;;;;;;;;;;;;;;2152615;27;20784;-75
2022/01/15 01:35:42;;;;;;;;;;;;;;;;;;2152324;27;20584;-73
2022/01/15 01:36:55;;;;;;;;;;;;;;;;;;2143897;27;19931;-72
2022/01/15 01:38:05;;;;;;;;;;;;;;;;;;2143938;27;20069;-72
2022/01/15 01:39:13;;;;;;;;;;;;;;;;;;2144096;27;19930;-75
2022/01/15 01:40:32;;;;;;;;;;;;;;;;;;2145261;27;19977;-73
2022/01/15 01:41:37;;;;;;;;;;;;;;;;;;2154915;27;19933;-75
2022/01/15 01:42:43;;;;;;;;;;;;;;;;;;2147587;27;19930;-72
2022/01/15 01:44:53;;;;;;;;;;;;;;;;;;2156800;27;19923;-72
2022/01/15 01:47:26;;;;;;;;;;;;;;;;;;2150056;27;19923;-73
2022/01/15 01:48:28;;;;;;;;;;;;;;;;;;2153589;27;19927;-74
2022/01/15 01:49:30;;;;;;;;;;;;;;;;;;2144559;27;19927;-74
2022/01/15 01:50:32;;;;;;;;;;;;;;;;;;2144560;27;19995;-74
2022/01/15 01:51:34;;;;;;;;;;;;;;;;;;2153902;27;20031;-76
2022/01/15 01:52:36;;;;;;;;;;;;;;;;;;2144491;27;19924;-74
2022/01/15 01:53:37;;;;;;;;;;;;;;;;;;2144649;27;19923;-77
2022/01/15 01:54:39;;;;;;;;;;;;;;;;;;2153720;27;19934;-76
2022/01/15 01:55:41;;;;;;;;;;;;;;;;;;2144366;27;19934;-73
2022/01/15 01:56:43;;;;;;;;;;;;;;;;;;2144164;27;19930;-75
2022/01/15 01:57:45;;;;;;;;;;;;;;;;;;2144730;27;20041;-74
2022/01/15 01:58:47;;;;;;;;;;;;;;;;;;2145498;27;20046;-74
2022/01/15 01:59:49;;;;;;;;;;;;;;;;;;2145927;27;19927;-75
2022/01/15 02:00:51;;;;;;;;;;;;;;;;;;2145073;27;19927;-74
2022/01/15 02:01:53;;;;;;;;;;;;;;;;;;2153322;27;19930;-73
2022/01/15 02:02:55;;;;;;;;;;;;;;;;;;2143965;27;19928;-73
2022/01/15 02:03:57;;;;;;;;;;;;;;;;;;2144130;27;19980;-75
2022/01/15 02:04:58;;;;;;;;;;;;;;;;;;2144564;27;19923;-73
2022/01/15 02:06:00;;;;;;;;;;;;;;;;;;2144067;27;19923;-72
2022/01/15 02:07:05;;;;;;;;;;;;;;;;;;2144008;27;20729;-75
2022/01/15 02:08:07;;;;;;;;;;;;;;;;;;2143884;27;20817;-72
2022/01/15 02:09:10;;;;;;;;;;;;;;;;;;2143924;27;19927;-72
2022/01/15 02:10:13;;;;;;;;;;;;;;;;;;2143940;27;20015;-73
2022/01/15 02:11:15;;;;;;;;;;;;;;;;;;2143944;27;19923;-72
2022/01/15 02:12:17;;;;;;;;;;;;;;;;;;2144494;27;19981;-72
2022/01/15 02:13:21;;;;;;;;;;;;;;;;;;2143961;27;19926;-73
2022/01/15 02:14:23;;;;;;;;;;;;;;;;;;2143615;27;19927;-73
2022/01/15 02:15:24;;;;;;;;;;;;;;;;;;2144288;27;19927;-72
2022/01/15 02:16:28;;;;;;;;;;;;;;;;;;2153368;27;20064;-73
2022/01/15 02:17:30;;;;;;;;;;;;;;;;;;2143879;27;19927;-74
2022/01/15 02:18:34;;;;;;;;;;;;;;;;;;2144446;27;19968;-75
2022/01/15 02:19:45;;;;;;;;;;;;;;;;;;2153083;27;19929;-75
2022/01/15 02:24:13;;;;;;;;;;;;;;;;;;2153104;27;19999;-75
2022/01/15 02:25:15;;;;;;;;;;;;;;;;;;2153456;27;19934;-74
2022/01/15 02:26:17;;;;;;;;;;;;;;;;;;2144032;27;20726;-74
2022/01/15 02:27:19;;;;;;;;;;;;;;;;;;2143910;27;19923;-74
2022/01/15 02:28:22;;;;;;;;;;;;;;;;;;2144417;27;19929;-74
2022/01/15 02:29:24;;;;;;;;;;;;;;;;;;2153358;27;19923;-74
2022/01/15 02:30:25;;;;;;;;;;;;;;;;;;2153338;27;19923;-74
2022/01/15 02:31:27;;;;;;;;;;;;;;;;;;2152919;27;20028;-74
2022/01/15 02:32:29;;;;;;;;;;;;;;;;;;2143901;27;19923;-73
2022/01/15 02:33:31;;;;;;;;;;;;;;;;;;2144338;27;19927;-74
2022/01/15 02:34:33;;;;;;;;;;;;;;;;;;2144187;27;19974;-77
2022/01/15 02:35:35;;;;;;;;;;;;;;;;;;2144002;27;19981;-74
2022/01/15 02:36:37;;;;;;;;;;;;;;;;;;2144040;27;19923;-76
2022/01/15 02:37:39;;;;;;;;;;;;;;;;;;2144097;27;19923;-76
2022/01/15 02:38:41;;;;;;;;;;;;;;;;;;2144189;27;19926;-74
2022/01/15 02:39:43;;;;;;;;;;;;;;;;;;2144343;27;19966;-75
2022/01/15 02:40:45;;;;;;;;;;;;;;;;;;2144326;27;20049;-75
2022/01/15 02:41:47;;;;;;;;;;;;;;;;;;2144335;27;19956;-72
2022/01/15 02:42:52;;;;;;;;;;;;;;;;;;2144211;27;19981;-76
2022/01/15 02:44:19;;;;;;;;;;;;;;;;;;2144407;27;19927;-75
2022/01/15 02:45:46;;;;;;;;;;;;;;;;;;2144115;27;19934;-71
2022/01/15 02:48:14;;;;;;;;;;;;;;;;;;2153154;27;19923;-73
2022/01/15 02:49:23;;;;;;;;;;;;;;;;;;2143809;27;19923;-72
2022/01/15 02:50:27;;;;;;;;;;;;;;;;;;2145636;27;19931;-72
2022/01/15 02:51:28;;;;;;;;;;;;;;;;;;2143997;27;20009;-73
2022/01/15 02:52:36;;;;;;;;;;;;;;;;;;2145292;27;19968;-75
2022/01/15 02:53:44;;;;;;;;;;;;;;;;;;2144052;27;20007;-76
2022/01/15 02:54:52;;;;;;;;;;;;;;;;;;2146245;27;19960;-77
2022/01/15 02:55:59;;;;;;;;;;;;;;;;;;2153770;27;19929;-77
2022/01/15 02:57:09;;;;;;;;;;;;;;;;;;2153949;27;19934;-77
2022/01/15 02:58:15;;;;;;;;;;;;;;;;;;2153724;27;19973;-75
2022/01/15 02:59:24;;;;;;;;;;;;;;;;;;2153918;27;19986;-79
2022/01/15 03:00:28;;;;;;;;;;;;;;;;;;2153902;27;19934;-73
2022/01/15 03:01:30;;;;;;;;;;;;;;;;;;2153777;27;19999;-73
2022/01/15 03:02:38;;;;;;;;;;;;;;;;;;2144292;27;20053;-77
2022/01/15 03:03:43;;;;;;;;;;;;;;;;;;2144823;27;19927;-75
2022/01/15 03:04:46;;;;;;;;;;;;;;;;;;2145968;27;19927;-75
2022/01/15 03:05:49;;;;;;;;;;;;;;;;;;2144196;27;20011;-74
2022/01/15 03:06:53;;;;;;;;;;;;;;;;;;2145354;27;19930;-78
2022/01/15 03:07:58;;;;;;;;;;;;;;;;;;2144529;27;19930;-75
2022/01/15 03:09:02;;;;;;;;;;;;;;;;;;2144301;27;19927;-78
2022/01/15 03:10:05;;;;;;;;;;;;;;;;;;2144772;27;19995;-77
2022/01/15 03:11:08;;;;;;;;;;;;;;;;;;2144942;27;19931;-74
2022/01/15 03:12:11;;;;;;;;;;;;;;;;;;2153457;27;19930;-73
2022/01/15 03:13:15;;;;;;;;;;;;;;;;;;2153566;27;19927;-75
2022/01/15 03:14:20;;;;;;;;;;;;;;;;;;2143977;27;19930;-73
2022/01/15 03:15:23;;;;;;;;;;;;;;;;;;2145012;27;19977;-73
2022/01/15 03:16:26;;;;;;;;;;;;;;;;;;2144052;27;20702;-75
2022/01/15 03:17:31;;;;;;;;;;;;;;;;;;2144736;27;19926;-73
2022/01/15 03:18:34;;;;;;;;;;;;;;;;;;2152957;27;20622;-73
2022/01/15 03:19:36;;;;;;;;;;;;;;;;;;2143704;27;19923;-73
2022/01/15 03:20:38;;;;;;;;;;;;;;;;;;2143729;27;19927;-73
2022/01/15 03:21:39;;;;;;;;;;;;;;;;;;2143846;27;20012;-73
2022/01/15 03:22:42;;;;;;;;;;;;;;;;;;2143328;27;20741;-73
2022/01/15 03:23:45;;;;;;;;;;;;;;;;;;2143780;27;19933;-74
2022/01/15 03:24:48;;;;;;;;;;;;;;;;;;2144338;27;20035;-72
2022/01/15 03:25:51;;;;;;;;;;;;;;;;;;2152969;27;19922;-72
2022/01/15 03:26:53;;;;;;;;;;;;;;;;;;2152806;27;19927;-72
2022/01/15 03:27:56;;;;;;;;;;;;;;;;;;2143501;27;19923;-71
2022/01/15 03:28:59;;;;;;;;;;;;;;;;;;2144114;27;20127;-72
2022/01/15 03:30:02;;;;;;;;;;;;;;;;;;2152858;27;19922;-72
2022/01/15 03:31:03;;;;;;;;;;;;;;;;;;2143619;27;19927;-72
2022/01/15 03:32:05;;;;;;;;;;;;;;;;;;2143273;27;19923;-72
2022/01/15 03:33:08;;;;;;;;;;;;;;;;;;2144130;27;19931;-71
2022/01/15 03:34:12;;;;;;;;;;;;;;;;;;2143152;27;20037;-71
2022/01/15 03:35:16;;;;;;;;;;;;;;;;;;2144373;27;20056;-71
2022/01/15 03:36:19;;;;;;;;;;;;;;;;;;2143459;27;20044;-70
2022/01/15 03:37:22;;;;;;;;;;;;;;;;;;2144091;27;20056;-71
2022/01/15 03:38:25;;;;;;;;;;;;;;;;;;2152853;27;19923;-72
2022/01/15 03:39:27;;;;;;;;;;;;;;;;;;2143394;27;20727;-72
2022/01/15 03:40:30;;;;;;;;;;;;;;;;;;2143677;27;20745;-72
2022/01/15 03:41:32;;;;;;;;;;;;;;;;;;2152729;27;19977;-71
2022/01/15 03:42:35;;;;;;;;;;;;;;;;;;2152570;27;19927;-71
2022/01/15 03:43:38;;;;;;;;;;;;;;;;;;2143384;27;19927;-72
2022/01/15 03:44:41;;;;;;;;;;;;;;;;;;2143988;27;20668;-71
2022/01/15 03:45:44;;;;;;;;;;;;;;;;;;2152582;27;20583;-72
2022/01/15 03:46:46;;;;;;;;;;;;;;;;;;2152644;27;19923;-71
2022/01/15 03:47:48;;;;;;;;;;;;;;;;;;2152585;27;19927;-72
2022/01/15 03:48:50;;;;;;;;;;;;;;;;;;2143412;27;19931;-71
2022/01/15 03:49:53;;;;;;;;;;;;;;;;;;2143619;27;20048;-73
2022/01/15 03:50:55;;;;;;;;;;;;;;;;;;2143891;27;19934;-71
2022/01/15 03:51:56;;;;;;;;;;;;;;;;;;2152517;27;19934;-73
2022/01/15 03:52:59;;;;;;;;;;;;;;;;;;2143434;27;20061;-73
2022/01/15 03:54:02;;;;;;;;;;;;;;;;;;2143401;27;19931;-73
2022/01/15 03:55:05;;;;;;;;;;;;;;;;;;2144003;27;19927;-71
2022/01/15 03:56:07;;;;;;;;;;;;;;;;;;2143402;27;19973;-73
2022/01/15 03:57:09;;;;;;;;;;;;;;;;;;2143899;27;20054;-72
2022/01/15 03:58:12;;;;;;;;;;;;;;;;;;2143475;27;19998;-72
2022/01/15 03:59:14;;;;;;;;;;;;;;;;;;2142634;27;20053;-72
2022/01/15 04:00:17;;;;;;;;;;;;;;;;;;2143038;27;19983;-72
2022/01/15 04:01:20;;;;;;;;;;;;;;;;;;2144266;27;21194;-73
2022/01/15 04:02:22;;;;;;;;;;;;;;;;;;2146473;27;19927;-72
2022/01/15 04:03:25;;;;;;;;;;;;;;;;;;2155035;27;19934;-74
2022/01/15 04:04:29;;;;;;;;;;;;;;;;;;2155106;27;20430;-73
2022/01/15 04:05:33;;;;;;;;;;;;;;;;;;2154889;27;20796;-77
2022/01/15 04:06:35;;;;;;;;;;;;;;;;;;2144817;27;20014;-73
2022/01/15 04:07:38;;;;;;;;;;;;;;;;;;2142961;27;19927;-72
2022/01/15 04:08:41;;;;;;;;;;;;;;;;;;2141989;27;19923;-73
2022/01/15 04:09:44;;;;;;;;;;;;;;;;;;2142748;27;19929;-72
2022/01/15 04:10:46;;;;;;;;;;;;;;;;;;2151671;27;19929;-72
2022/01/15 04:11:49;;;;;;;;;;;;;;;;;;2151609;27;19989;-72
2022/01/15 04:12:53;;;;;;;;;;;;;;;;;;2142122;27;19926;-71
2022/01/15 04:14:00;;;;;;;;;;;;;;;;;;2144460;27;20765;-72
2022/01/15 04:15:03;;;;;;;;;;;;;;;;;;2152216;27;20794;-72
2022/01/15 04:16:07;;;;;;;;;;;;;;;;;;2152614;27;19931;-71
2022/01/15 04:17:10;;;;;;;;;;;;;;;;;;2152443;27;19922;-71
2022/01/15 04:18:14;;;;;;;;;;;;;;;;;;2142929;27;19973;-72
2022/01/15 04:19:19;;;;;;;;;;;;;;;;;;2143021;27;19927;-71
2022/01/15 04:20:23;;;;;;;;;;;;;;;;;;2143231;27;20009;-70
2022/01/15 04:21:26;;;;;;;;;;;;;;;;;;2151584;27;19922;-75
2022/01/15 04:22:28;;;;;;;;;;;;;;;;;;2151424;27;20789;-70
2022/01/15 04:23:30;;;;;;;;;;;;;;;;;;2142260;27;19938;-71
2022/01/15 04:24:32;;;;;;;;;;;;;;;;;;2143145;27;19948;-71
2022/01/15 04:25:38;;;;;;;;;;;;;;;;;;2152366;27;19926;-72
2022/01/15 04:26:41;;;;;;;;;;;;;;;;;;2152042;27;19933;-71
2022/01/15 04:27:44;;;;;;;;;;;;;;;;;;2142595;27;20020;-72
2022/01/15 04:28:47;;;;;;;;;;;;;;;;;;2143224;27;19927;-72
2022/01/15 04:29:49;;;;;;;;;;;;;;;;;;2142104;27;20024;-71
2022/01/15 04:30:52;;;;;;;;;;;;;;;;;;2142959;27;20705;-71
2022/01/15 04:31:55;;;;;;;;;;;;;;;;;;2142796;27;20008;-71
2022/01/15 04:32:58;;;;;;;;;;;;;;;;;;2142865;27;20023;-73
2022/01/15 04:34:01;;;;;;;;;;;;;;;;;;2142512;27;19927;-73
2022/01/15 04:35:03;;;;;;;;;;;;;;;;;;2142953;27;20730;-72
2022/01/15 04:36:06;;;;;;;;;;;;;;;;;;2142001;27;20015;-72
2022/01/15 04:37:17;;;;;;;;;;;;;;;;;;2142799;27;20682;-72
2022/01/15 04:38:21;;;;;;;;;;;;;;;;;;2142029;27;19931;-73
2022/01/15 04:39:29;;;;;;;;;;;;;;;;;;2141873;27;20076;-73
2022/01/15 04:40:32;;;;;;;;;;;;;;;;;;2142161;27;19970;-72
2022/01/15 04:41:35;;;;;;;;;;;;;;;;;;2142049;27;19927;-73
2022/01/15 04:42:36;;;;;;;;;;;;;;;;;;2142087;27;20895;-73
2022/01/15 04:43:39;;;;;;;;;;;;;;;;;;2141903;27;20064;-73
2022/01/15 04:44:43;;;;;;;;;;;;;;;;;;2142053;27;20682;-74
2022/01/15 04:45:45;;;;;;;;;;;;;;;;;;2142101;27;19927;-73
2022/01/15 04:46:48;;;;;;;;;;;;;;;;;;2142099;27;20056;-72
2022/01/15 04:47:52;;;;;;;;;;;;;;;;;;2142589;27;20004;-71
2022/01/15 04:48:56;;;;;;;;;;;;;;;;;;2142034;27;19968;-73
2022/01/15 04:49:58;;;;;;;;;;;;;;;;;;2142556;27;19931;-74
2022/01/15 04:51:00;;;;;;;;;;;;;;;;;;2142972;27;20641;-74
2022/01/15 04:52:02;;;;;;;;;;;;;;;;;;2142980;27;19927;-75
2022/01/15 04:53:04;;;;;;;;;;;;;;;;;;2143706;27;19927;-76
2022/01/15 04:54:07;;;;;;;;;;;;;;;;;;2143792;27;19997;-72
2022/01/15 04:55:09;;;;;;;;;;;;;;;;;;2143520;27;19930;-74
2022/01/15 04:56:11;;;;;;;;;;;;;;;;;;2143153;27;19923;-74
2022/01/15 04:57:14;;;;;;;;;;;;;;;;;;2143225;27;19927;-75
2022/01/15 04:58:15;;;;;;;;;;;;;;;;;;2143078;27;19927;-73
2022/01/15 04:59:17;;;;;;;;;;;;;;;;;;2142823;27;20622;-72
2022/01/15 05:00:19;;;;;;;;;;;;;;;;;;2142886;27;20733;-74
2022/01/15 05:01:21;;;;;;;;;;;;;;;;;;2143084;27;20745;-74
2022/01/15 05:02:23;;;;;;;;;;;;;;;;;;2142866;27;20036;-72
2022/01/15 05:03:25;;;;;;;;;;;;;;;;;;2142881;27;20001;-72
2022/01/15 05:04:27;;;;;;;;;;;;;;;;;;2143724;27;19927;-75
2022/01/15 05:05:30;;;;;;;;;;;;;;;;;;2143659;27;19927;-72
2022/01/15 05:06:32;;;;;;;;;;;;;;;;;;2142765;27;19923;-75
2022/01/15 05:07:35;;;;;;;;;;;;;;;;;;2143044;27;19963;-74
2022/01/15 05:08:40;;;;;;;;;;;;;;;;;;2143137;27;19962;-73
2022/01/15 05:09:43;;;;;;;;;;;;;;;;;;2142950;27;19923;-73
2022/01/15 05:10:47;;;;;;;;;;;;;;;;;;2143151;27;19927;-72
2022/01/15 05:12:09;;;;;;;;;;;;;;;;;;2142898;27;19923;-72
2022/01/15 05:13:14;;;;;;;;;;;;;;;;;;2141690;27;19927;-74
2022/01/15 05:14:16;;;;;;;;;;;;;;;;;;2136245;27;19985;-73
2022/01/15 05:15:18;;;;;;;;;;;;;;;;;;2140992;27;20040;-73
2022/01/15 05:16:21;;;;;;;;;;;;;;;;;;2143613;27;20934;-74
2022/01/15 05:17:23;;;;;;;;;;;;;;;;;;2144913;27;20791;-73
2022/01/15 05:18:26;;;;;;;;;;;;;;;;;;2144960;27;19924;-72
2022/01/15 05:19:28;;;;;;;;;;;;;;;;;;2138453;27;19988;-72
2022/01/15 05:20:33;;;;;;;;;;;;;;;;;;2136267;27;19996;-73
2022/01/15 05:21:34;;;;;;;;;;;;;;;;;;2135619;27;19986;-75
2022/01/15 05:22:36;;;;;;;;;;;;;;;;;;2127101;27;19924;-73
2022/01/15 05:23:38;;;;;;;;;;;;;;;;;;2135568;27;19932;-73
2022/01/15 05:24:40;;;;;;;;;;;;;;;;;;2139268;27;20049;-73
2022/01/15 05:25:42;;;;;;;;;;;;;;;;;;2144269;27;19923;-73
2022/01/15 05:26:44;;;;;;;;;;;;;;;;;;2144300;27;20792;-73
2022/01/15 05:27:46;;;;;;;;;;;;;;;;;;2144411;27;19927;-74
2022/01/15 05:28:48;;;;;;;;;;;;;;;;;;2144649;27;20008;-73
2022/01/15 05:29:50;;;;;;;;;;;;;;;;;;2144300;27;19931;-75
2022/01/15 05:30:52;;;;;;;;;;;;;;;;;;2144453;27;19934;-74
2022/01/15 05:31:54;;;;;;;;;;;;;;;;;;2144412;27;19923;-74
2022/01/15 05:32:57;;;;;;;;;;;;;;;;;;2144163;27;19986;-74
2022/01/15 05:33:59;;;;;;;;;;;;;;;;;;2143945;27;19934;-75
2022/01/15 05:35:02;;;;;;;;;;;;;;;;;;2144124;27;20756;-71
2022/01/15 05:36:04;;;;;;;;;;;;;;;;;;2144472;27;20741;-75
2022/01/15 05:37:06;;;;;;;;;;;;;;;;;;2144451;27;20059;-72
2022/01/15 05:38:09;;;;;;;;;;;;;;;;;;2144229;27;19970;-75
2022/01/15 05:39:11;;;;;;;;;;;;;;;;;;2144212;27;20647;-72
2022/01/15 05:40:14;;;;;;;;;;;;;;;;;;2144269;27;19927;-72
2022/01/15 05:41:15;;;;;;;;;;;;;;;;;;2144368;27;20004;-76
2022/01/15 05:42:17;;;;;;;;;;;;;;;;;;2144818;27;20023;-73
2022/01/15 05:43:20;;;;;;;;;;;;;;;;;;2144050;27;20863;-72
2022/01/15 05:44:23;;;;;;;;;;;;;;;;;;2144271;27;19923;-73
2022/01/15 05:45:25;;;;;;;;;;;;;;;;;;2135666;27;19931;-73
2022/01/15 05:46:27;;;;;;;;;;;;;;;;;;2135849;27;19961;-74
2022/01/15 05:47:30;;;;;;;;;;;;;;;;;;2144359;27;19927;-72
2022/01/15 05:48:32;;;;;;;;;;;;;;;;;;2144406;27;19923;-73
2022/01/15 05:49:34;;;;;;;;;;;;;;;;;;2144311;27;19927;-73
2022/01/15 05:50:36;;;;;;;;;;;;;;;;;;2144487;27;20728;-73
2022/01/15 05:51:38;;;;;;;;;;;;;;;;;;2144262;27;20757;-73
2022/01/15 05:52:40;;;;;;;;;;;;;;;;;;2144434;27;19927;-76
2022/01/15 05:53:42;;;;;;;;;;;;;;;;;;2144814;27;20829;-73
2022/01/15 05:54:44;;;;;;;;;;;;;;;;;;2144897;27;19927;-76
2022/01/15 05:55:46;;;;;;;;;;;;;;;;;;2145083;27;20735;-75
2022/01/15 05:56:48;;;;;;;;;;;;;;;;;;2145111;27;19923;-76
2022/01/15 05:57:49;;;;;;;;;;;;;;;;;;2144952;27;20057;-78
2022/01/15 05:58:51;;;;;;;;;;;;;;;;;;2145369;27;20654;-76
2022/01/15 05:59:53;;;;;;;;;;;;;;;;;;2145245;27;20774;-75
2022/01/15 06:00:56;;;;;;;;;;;;;;;;;;2145501;27;19923;-76
2022/01/15 06:01:59;;;;;;;;;;;;;;;;;;2145214;27;20037;-77
2022/01/15 06:03:01;;;;;;;;;;;;;;;;;;2145892;27;19934;-75
2022/01/15 06:04:03;;;;;;;;;;;;;;;;;;2145292;27;19927;-75
2022/01/15 06:05:05;;;;;;;;;;;;;;;;;;2145739;27;20671;-77
2022/01/15 06:06:08;;;;;;;;;;;;;;;;;;2145544;27;20004;-78
2022/01/15 06:07:10;;;;;;;;;;;;;;;;;;2138062;27;19962;-77
2022/01/15 06:08:12;;;;;;;;;;;;;;;;;;2144273;27;20095;-77
2022/01/15 06:09:15;;;;;;;;;;;;;;;;;;2146102;27;19923;-75
2022/01/15 06:10:17;;;;;;;;;;;;;;;;;;2137588;27;19930;-76
2022/01/15 06:11:18;;;;;;;;;;;;;;;;;;2128415;27;20045;-76
2022/01/15 06:12:28;;;;;;;;;;;;;;;;;;2137400;27;20699;-77
2022/01/15 06:13:30;;;;;;;;;;;;;;;;;;2145187;27;20619;-78
2022/01/15 06:14:33;;;;;;;;;;;;;;;;;;2136378;27;19927;-77
2022/01/15 06:15:36;;;;;;;;;;;;;;;;;;2136555;27;20634;-73
2022/01/15 06:16:39;;;;;;;;;;;;;;;;;;2136206;27;19957;-77
2022/01/15 06:17:41;;;;;;;;;;;;;;;;;;2128151;27;19923;-77
2022/01/15 06:18:43;;;;;;;;;;;;;;;;;;2129909;27;19992;-79
2022/01/15 06:19:45;;;;;;;;;;;;;;;;;;2129597;27;19981;-77
2022/01/15 06:20:48;;;;;;;;;;;;;;;;;;2129938;27;19928;-78
2022/01/15 06:21:49;;;;;;;;;;;;;;;;;;2130011;27;20006;-79
2022/01/15 06:22:52;;;;;;;;;;;;;;;;;;2136715;27;19935;-75
2022/01/15 06:23:54;;;;;;;;;;;;;;;;;;2135671;27;19963;-74
2022/01/15 06:24:56;;;;;;;;;;;;;;;;;;2127608;27;19927;-72
2022/01/15 06:25:58;;;;;;;;;;;;;;;;;;2127337;27;20054;-75
2022/01/15 06:27:00;;;;;;;;;;;;;;;;;;2127026;27;19924;-76
2022/01/15 06:28:02;;;;;;;;;;;;;;;;;;2127470;27;19928;-78
2022/01/15 06:29:04;;;;;;;;;;;;;;;;;;2135904;27;19924;-76
2022/01/15 06:30:07;;;;;;;;;;;;;;;;;;2136071;27;19923;-73
2022/01/15 06:31:09;;;;;;;;;;;;;;;;;;2136138;27;19931;-76
2022/01/15 06:32:12;;;;;;;;;;;;;;;;;;2135898;27;19923;-76
2022/01/15 06:33:13;;;;;;;;;;;;;;;;;;2128383;27;19927;-75
2022/01/15 06:34:16;;;;;;;;;;;;;;;;;;2127515;27;19928;-75
2022/01/15 06:35:18;;;;;;;;;;;;;;;;;;2135833;27;19931;-75
2022/01/15 06:36:20;;;;;;;;;;;;;;;;;;2136353;27;19928;-73
2022/01/15 06:37:22;;;;;;;;;;;;;;;;;;2136080;27;20027;-73
2022/01/15 06:38:25;;;;;;;;;;;;;;;;;;2135291;27;20819;-73
2022/01/15 06:39:27;;;;;;;;;;;;;;;;;;2135290;27;19923;-72
2022/01/15 06:40:31;;;;;;;;;;;;;;;;;;2135933;27;20043;-76
2022/01/15 06:41:33;;;;;;;;;;;;;;;;;;2135799;27;20768;-75
2022/01/15 06:42:34;;;;;;;;;;;;;;;;;;2135905;27;19934;-74
2022/01/15 06:43:36;;;;;;;;;;;;;;;;;;2135879;27;19927;-75
2022/01/15 06:44:38;;;;;;;;;;;;;;;;;;2135672;27;20070;-72
2022/01/15 06:45:40;;;;;;;;;;;;;;;;;;2135806;27;20765;-72
2022/01/15 06:46:41;;;;;;;;;;;;;;;;;;2135435;27;19930;-74
2022/01/15 06:47:43;;;;;;;;;;;;;;;;;;2138246;27;19923;-72
2022/01/15 06:48:45;;;;;;;;;;;;;;;;;;2127400;27;19927;-75
2022/01/15 06:49:47;;;;;;;;;;;;;;;;;;2126947;27;19935;-72
2022/01/15 06:50:49;;;;;;;;;;;;;;;;;;2135278;27;20188;-72
2022/01/15 06:51:50;;;;;;;;;;;;;;;;;;2134978;27;20819;-74
2022/01/15 06:52:52;;;;;;;;;;;;;;;;;;2132755;27;20778;-72
2022/01/15 06:53:55;;;;;;;;;;;;;;;;;;2142418;27;19923;-74
2022/01/15 06:54:57;;;;;;;;;;;;;;;;;;2135921;27;19928;-75
2022/01/15 06:55:59;;;;;;;;;;;;;;;;;;2139716;27;19923;-74
2022/01/15 06:57:01;;;;;;;;;;;;;;;;;;2143975;27;19923;-73
2022/01/15 06:58:03;;;;;;;;;;;;;;;;;;2140782;27;19940;-71
2022/01/15 06:59:05;;;;;;;;;;;;;;;;;;2135294;27;20062;-73
2022/01/15 07:00:07;;;;;;;;;;;;;;;;;;2135655;27;19931;-74
2022/01/15 07:01:09;;;;;;;;;;;;;;;;;;2135025;27;20000;-72
2022/01/15 07:02:11;;;;;;;;;;;;;;;;;;2135042;27;20777;-74
2022/01/15 07:03:13;;;;;;;;;;;;;;;;;;2135626;27;19961;-73
2022/01/15 07:04:17;;;;;;;;;;;;;;;;;;2135746;27;20796;-74
2022/01/15 07:05:20;;;;;;;;;;;;;;;;;;2135114;27;19979;-74
2022/01/15 07:06:22;;;;;;;;;;;;;;;;;;2126976;27;20702;-72
2022/01/15 07:07:25;;;;;;;;;;;;;;;;;;2132106;27;20700;-72
2022/01/15 07:08:28;;;;;;;;;;;;;;;;;;2143906;27;19931;-74
2022/01/15 07:09:31;;;;;;;;;;;;;;;;;;2144040;27;19927;-72
2022/01/15 07:10:33;;;;;;;;;;;;;;;;;;2143933;27;20115;-73
2022/01/15 07:11:34;;;;;;;;;;;;;;;;;;2144099;27;19979;-73
2022/01/15 07:12:37;;;;;;;;;;;;;;;;;;2144473;27;19923;-74
2022/01/15 07:13:39;;;;;;;;;;;;;;;;;;2144578;27;20093;-74
2022/01/15 07:14:41;;;;;;;;;;;;;;;;;;2144543;27;20749;-74
2022/01/15 07:15:44;;;;;;;;;;;;;;;;;;2143965;27;19927;-74
2022/01/15 07:16:45;;;;;;;;;;;;;;;;;;2143914;27;19924;-76
2022/01/15 07:17:49;;;;;;;;;;;;;;;;;;2143484;27;20123;-73
2022/01/15 07:18:51;;;;;;;;;;;;;;;;;;2143797;27;19939;-73
2022/01/15 07:19:52;;;;;;;;;;;;;;;;;;2145118;27;19974;-73
2022/01/15 07:20:55;;;;;;;;;;;;;;;;;;2147867;27;19923;-73
2022/01/15 07:21:57;;;;;;;;;;;;;;;;;;2147816;27;20041;-72
2022/01/15 07:22:59;;;;;;;;;;;;;;;;;;2147524;27;20012;-72
2022/01/15 07:24:01;;;;;;;;;;;;;;;;;;2147402;27;20019;-72
2022/01/15 07:25:03;;;;;;;;;;;;;;;;;;2146605;27;19996;-73
2022/01/15 07:26:06;;;;;;;;;;;;;;;;;;2143737;27;19927;-72
2022/01/15 07:27:08;;;;;;;;;;;;;;;;;;2143818;27;19930;-72
2022/01/15 07:28:10;;;;;;;;;;;;;;;;;;2144471;27;20747;-72
2022/01/15 07:29:15;;;;;;;;;;;;;;;;;;2143578;27;20017;-72
2022/01/15 07:30:17;;;;;;;;;;;;;;;;;;2143810;27;19930;-71
2022/01/15 07:31:20;;;;;;;;;;;;;;;;;;2144201;27;19923;-72